createdAt,value
2018-12-26T00:01:37.911Z,89.00
2018-12-26T00:04:06.292Z,52.03
2018-12-26T00:06:34.675Z,82.50
2018-12-26T00:09:07.171Z,80.67
2018-12-26T00:11:35.544Z,49.77
2018-12-26T00:14:05.088Z,46.63
2018-12-26T00:16:33.465Z,42.40
2018-12-26T00:19:01.855Z,55.23
2018-12-26T00:21:31.804Z,51.33
2018-12-26T00:24:00.310Z,56.80
2018-12-26T00:26:30.134Z,52.13
2018-12-26T00:29:00.157Z,115.47
2018-12-26T00:31:28.556Z,52.50
2018-12-26T00:33:56.932Z,51.07
2018-12-26T00:36:26.559Z,53.50
2018-12-26T00:38:55.031Z,48.70
2018-12-26T00:41:23.419Z,62.37
2018-12-26T00:43:51.808Z,59.97
2018-12-26T00:46:21.457Z,53.30
2018-12-26T00:48:49.860Z,75.37
2018-12-26T00:51:18.332Z,74.73
2018-12-26T00:53:46.703Z,70.20
2018-12-26T00:56:15.816Z,81.50
2018-12-26T00:58:44.611Z,77.03
2018-12-26T01:01:14.288Z,90.63
2018-12-26T01:03:44.645Z,173.67
2018-12-26T01:06:13.047Z,79.27
2018-12-26T01:08:41.494Z,257.63
2018-12-26T01:11:09.903Z,122.67
2018-12-26T01:13:38.283Z,237.43
2018-12-26T01:16:06.692Z,140.47
2018-12-26T01:18:35.094Z,131.80
2018-12-26T01:21:03.521Z,120.43
2018-12-26T01:23:31.900Z,146.33
2018-12-26T01:26:00.408Z,162.07
2018-12-26T01:28:28.833Z,93.00
2018-12-26T01:30:57.240Z,106.83
2018-12-26T01:33:25.640Z,178.30
2018-12-26T01:35:56.164Z,85.33
2018-12-26T01:38:25.724Z,326.00
2018-12-26T01:40:55.659Z,116.63
2018-12-26T01:43:24.127Z,89.03
2018-12-26T01:45:52.526Z,101.83
2018-12-26T01:48:20.985Z,78.23
2018-12-26T01:50:49.379Z,113.63
2018-12-26T01:53:18.764Z,107.43
2018-12-26T01:55:48.984Z,77.57
2018-12-26T01:58:17.345Z,77.13
2018-12-26T02:00:45.715Z,61.27
2018-12-26T02:03:14.114Z,66.87
2018-12-26T02:05:42.883Z,66.67
2018-12-26T02:08:11.676Z,60.20
2018-12-26T02:10:40.043Z,59.20
2018-12-26T02:13:08.473Z,68.93
2018-12-26T02:15:37.139Z,54.27
2018-12-26T02:18:05.642Z,46.33
2018-12-26T02:20:34.487Z,46.00
2018-12-26T02:23:02.907Z,46.73
2018-12-26T02:25:31.279Z,46.23
2018-12-26T02:27:59.680Z,40.00
2018-12-26T02:30:28.063Z,47.07
2018-12-26T02:32:56.519Z,48.03
2018-12-26T02:35:24.967Z,42.77
2018-12-26T02:37:53.360Z,41.83
2018-12-26T02:40:21.784Z,39.43
2018-12-26T02:42:50.136Z,36.10
2018-12-26T02:45:18.582Z,37.27
2018-12-26T02:47:46.992Z,40.13
2018-12-26T02:50:15.359Z,40.80
2018-12-26T02:52:43.769Z,35.97
2018-12-26T02:55:12.140Z,37.70
2018-12-26T02:57:40.849Z,34.50
2018-12-26T03:00:09.298Z,31.90
2018-12-26T03:02:37.710Z,36.80
2018-12-26T03:05:07.715Z,36.37
2018-12-26T03:07:36.170Z,33.80
2018-12-26T03:10:06.468Z,36.87
2018-12-26T03:12:34.864Z,38.27
2018-12-26T03:15:03.505Z,38.00
2018-12-26T03:17:33.544Z,36.23
2018-12-26T03:20:01.944Z,31.50
2018-12-26T03:22:30.538Z,39.27
2018-12-26T03:24:58.915Z,33.87
2018-12-26T03:27:27.630Z,34.20
2018-12-26T03:29:56.018Z,37.03
2018-12-26T03:32:26.298Z,30.90
2018-12-26T03:34:54.706Z,35.17
2018-12-26T03:37:23.118Z,37.53
2018-12-26T03:39:51.526Z,34.63
2018-12-26T03:42:19.905Z,32.97
2018-12-26T03:44:48.472Z,34.40
2018-12-26T03:47:16.908Z,43.17
2018-12-26T03:49:45.335Z,41.63
2018-12-26T03:52:13.708Z,44.07
2018-12-26T03:54:42.112Z,46.73
2018-12-26T03:57:10.558Z,47.40
2018-12-26T03:59:38.965Z,43.00
2018-12-26T04:02:07.349Z,51.50
2018-12-26T04:04:35.744Z,46.73
2018-12-26T04:07:04.392Z,53.00
2018-12-26T04:09:32.793Z,41.90
2018-12-26T04:12:01.177Z,42.07
2018-12-26T04:14:29.574Z,49.53
2018-12-26T04:16:57.948Z,43.20
2018-12-26T04:19:26.748Z,50.97
2018-12-26T04:21:55.121Z,57.33
2018-12-26T04:24:23.525Z,52.73
2018-12-26T04:26:51.919Z,54.93
2018-12-26T04:29:20.320Z,52.20
2018-12-26T04:31:48.880Z,66.17
2018-12-26T04:34:17.276Z,52.90
2018-12-26T04:36:45.654Z,119.77
2018-12-26T04:39:14.046Z,59.70
2018-12-26T04:41:42.484Z,54.50
2018-12-26T04:44:10.883Z,55.10
2018-12-26T04:46:39.256Z,64.97
2018-12-26T04:49:07.797Z,60.47
2018-12-26T04:51:38.200Z,57.20
2018-12-26T04:54:06.600Z,53.33
2018-12-26T04:56:34.975Z,54.00
2018-12-26T04:59:04.719Z,53.17
2018-12-26T05:01:33.096Z,46.83
2018-12-26T05:04:01.486Z,46.10
2018-12-26T05:06:30.233Z,42.80
2018-12-26T05:08:58.638Z,42.93
2018-12-26T05:11:27.034Z,45.33
2018-12-26T05:13:55.496Z,39.80
2018-12-26T05:16:23.987Z,37.70
2018-12-26T05:18:52.332Z,43.17
2018-12-26T05:21:20.808Z,27.40
2018-12-26T05:23:52.092Z,27.90
2018-12-26T05:26:20.760Z,33.53
2018-12-26T05:28:49.152Z,34.17
2018-12-26T05:31:20.674Z,39.57
2018-12-26T05:33:50.675Z,41.10
2018-12-26T05:36:19.084Z,36.37
2018-12-26T05:38:47.742Z,37.23
2018-12-26T05:41:16.187Z,45.07
2018-12-26T05:43:44.571Z,38.70
2018-12-26T05:46:12.989Z,39.60
2018-12-26T05:48:43.015Z,34.20
2018-12-26T05:51:12.303Z,33.13
2018-12-26T05:53:42.090Z,39.70
2018-12-26T05:56:10.488Z,34.77
2018-12-26T05:58:38.866Z,31.87
2018-12-26T06:01:07.273Z,29.23
2018-12-26T06:03:35.936Z,30.27
2018-12-26T06:06:05.968Z,36.80
2018-12-26T06:08:34.349Z,37.80
2018-12-26T06:11:02.758Z,31.37
2018-12-26T06:13:31.136Z,32.23
2018-12-26T06:15:59.535Z,30.90
2018-12-26T06:18:29.303Z,30.43
2018-12-26T06:20:57.700Z,29.27
2018-12-26T06:23:26.081Z,30.13
2018-12-26T06:25:54.485Z,29.83
2018-12-26T06:28:22.856Z,86.23
2018-12-26T06:30:52.513Z,27.07
2018-12-26T06:33:20.886Z,29.27
2018-12-26T06:35:49.290Z,28.73
2018-12-26T06:38:17.933Z,29.00
2018-12-26T06:40:47.565Z,30.27
2018-12-26T06:43:15.932Z,33.50
2018-12-26T06:45:44.330Z,28.50
2018-12-26T06:48:12.712Z,28.97
2018-12-26T06:50:41.087Z,30.13
2018-12-26T06:53:09.491Z,29.57
2018-12-26T06:55:37.883Z,26.83
2018-12-26T06:58:06.288Z,29.53
2018-12-26T07:00:34.673Z,29.50
2018-12-26T07:03:04.701Z,30.47
2018-12-26T07:05:33.072Z,30.43
2018-12-26T07:08:01.495Z,35.00
2018-12-26T07:10:29.886Z,34.07
2018-12-26T07:12:58.363Z,30.73
2018-12-26T07:15:28.380Z,37.80
2018-12-26T07:17:56.863Z,30.80
2018-12-26T07:20:25.244Z,34.77
2018-12-26T07:22:53.666Z,31.57
2018-12-26T07:25:22.419Z,29.50
2018-12-26T07:27:50.821Z,32.83
2018-12-26T07:30:19.206Z,31.43
2018-12-26T07:32:49.247Z,36.60
2018-12-26T07:35:17.721Z,34.10
2018-12-26T07:37:47.334Z,31.93
2018-12-26T07:40:16.259Z,35.67
2018-12-26T07:42:44.712Z,30.90
2018-12-26T07:45:13.097Z,29.77
2018-12-26T07:47:41.491Z,30.90
2018-12-26T07:50:09.936Z,25.67
2018-12-26T07:52:38.336Z,21.90
2018-12-26T07:55:06.705Z,22.20
2018-12-26T07:57:35.095Z,20.70
2018-12-26T08:00:03.640Z,24.13
2018-12-26T08:02:32.065Z,17.80
2018-12-26T08:05:00.439Z,19.03
2018-12-26T08:07:28.854Z,18.57
2018-12-26T08:09:57.216Z,19.00
2018-12-26T08:12:25.621Z,16.63
2018-12-26T08:14:54.026Z,17.57
2018-12-26T08:17:22.398Z,16.47
2018-12-26T08:19:50.803Z,17.30
2018-12-26T08:22:19.182Z,16.97
2018-12-26T08:24:47.599Z,16.40
2018-12-26T08:27:15.996Z,17.48
2018-12-26T08:29:45.403Z,18.77
2018-12-26T08:32:13.780Z,17.70
2018-12-26T08:34:43.914Z,20.80
2018-12-26T08:37:12.267Z,14.30
2018-12-26T08:39:40.657Z,18.27
2018-12-26T08:42:09.027Z,18.83
2018-12-26T08:44:37.415Z,16.93
2018-12-26T08:47:05.796Z,18.50
2018-12-26T08:49:34.364Z,21.47
2018-12-26T08:52:03.087Z,16.63
2018-12-26T08:54:31.481Z,15.43
2018-12-26T08:56:59.860Z,17.80
2018-12-26T08:59:28.273Z,15.30
2018-12-26T09:01:59.063Z,13.87
2018-12-26T09:04:27.397Z,16.00
2018-12-26T09:06:55.780Z,14.37
2018-12-26T09:09:24.204Z,13.63
2018-12-26T09:11:52.585Z,14.63
2018-12-26T09:14:20.996Z,15.47
2018-12-26T09:16:53.860Z,14.60
2018-12-26T09:19:22.267Z,14.00
2018-12-26T09:21:50.685Z,14.40
2018-12-26T09:24:19.121Z,14.53
2018-12-26T09:26:49.150Z,16.17
2018-12-26T09:29:20.034Z,15.25
2018-12-26T09:31:48.422Z,17.02
2018-12-26T09:34:16.842Z,17.27
2018-12-26T09:36:45.260Z,20.40
2018-12-26T09:39:13.863Z,16.25
2018-12-26T09:41:42.239Z,17.45
2018-12-26T09:44:10.639Z,17.60
2018-12-26T09:46:39.117Z,16.48
2018-12-26T09:49:07.496Z,16.48
2018-12-26T09:51:35.938Z,13.65
2018-12-26T09:54:04.349Z,29.15
2018-12-26T09:56:34.376Z,15.85
2018-12-26T09:59:02.751Z,16.00
2018-12-26T10:01:31.154Z,16.50
2018-12-26T10:04:00.959Z,13.90
2018-12-26T10:06:29.351Z,16.42
2018-12-26T10:08:57.736Z,16.67
2018-12-26T10:11:26.160Z,16.37
2018-12-26T10:13:54.577Z,16.75
2018-12-26T10:16:22.991Z,16.45
2018-12-26T10:18:51.359Z,41.13
2018-12-26T10:21:19.759Z,91.70
2018-12-26T10:23:49.282Z,16.55
2018-12-26T10:26:17.673Z,16.00
2018-12-26T10:28:47.375Z,17.15
2018-12-26T10:31:15.819Z,15.98
2018-12-26T10:33:44.213Z,16.70
2018-12-26T10:36:12.635Z,16.07
2018-12-26T10:38:41.011Z,18.65
2018-12-26T10:41:09.439Z,22.15
2018-12-26T10:43:38.196Z,16.30
2018-12-26T10:46:06.609Z,23.70
2018-12-26T10:48:35.079Z,20.68
2018-12-26T10:51:03.464Z,21.07
2018-12-26T10:53:31.855Z,18.95
2018-12-26T10:56:00.315Z,19.10
2018-12-26T10:58:28.700Z,16.42
2018-12-26T11:00:57.108Z,16.85
2018-12-26T11:03:25.496Z,20.15
2018-12-26T11:05:54.006Z,16.45
2018-12-26T11:08:24.044Z,18.35
2018-12-26T11:10:52.445Z,20.08
2018-12-26T11:13:20.825Z,15.72
2018-12-26T11:15:49.304Z,20.55
2018-12-26T11:18:17.697Z,20.92
2018-12-26T11:20:46.097Z,30.92
2018-12-26T11:23:14.471Z,18.95
2018-12-26T11:25:42.846Z,20.72
2018-12-26T11:28:11.258Z,18.25
2018-12-26T11:30:39.637Z,23.65
2018-12-26T11:33:08.047Z,18.48
2018-12-26T11:35:36.419Z,22.52
2018-12-26T11:38:06.089Z,18.60
2018-12-26T11:40:34.513Z,17.20
2018-12-26T11:43:02.885Z,18.32
2018-12-26T11:45:31.353Z,17.73
2018-12-26T11:47:59.843Z,20.52
2018-12-26T11:50:28.227Z,18.40
2018-12-26T11:52:56.724Z,20.12
2018-12-26T11:55:25.154Z,20.20
2018-12-26T11:57:53.900Z,18.65
2018-12-26T12:00:22.275Z,22.37
2018-12-26T12:02:50.667Z,21.37
2018-12-26T12:05:19.055Z,27.23
2018-12-26T12:07:47.457Z,20.50
2018-12-26T12:10:15.927Z,21.07
2018-12-26T12:12:44.348Z,28.80
2018-12-26T12:15:12.729Z,24.17
2018-12-26T12:17:41.126Z,97.77
2018-12-26T12:20:10.291Z,296.63
2018-12-26T12:22:38.895Z,34.03
2018-12-26T12:25:07.280Z,33.57
2018-12-26T12:27:36.108Z,27.07
2018-12-26T12:30:05.636Z,28.33
2018-12-26T12:32:34.030Z,29.93
2018-12-26T12:35:02.417Z,30.77
2018-12-26T12:37:30.820Z,31.50
2018-12-26T12:39:59.202Z,29.80
2018-12-26T12:42:29.888Z,25.33
2018-12-26T12:44:58.956Z,28.27
2018-12-26T12:47:27.363Z,30.73
2018-12-26T12:50:15.164Z,29.97
2018-12-26T12:52:43.572Z,38.40
2018-12-26T12:55:11.933Z,30.93
2018-12-26T12:57:40.328Z,30.83
2018-12-26T13:00:09.207Z,27.80
2018-12-26T13:02:40.832Z,28.70
2018-12-26T13:05:09.232Z,29.43
2018-12-26T13:07:37.614Z,30.30
2018-12-26T13:10:06.353Z,29.53
2018-12-26T13:12:35.240Z,30.57
2018-12-26T13:15:03.793Z,28.97
2018-12-26T13:17:32.169Z,25.57
2018-12-26T13:20:00.888Z,29.67
2018-12-26T13:22:29.767Z,39.00
2018-12-26T13:24:58.428Z,68.10
2018-12-26T13:27:26.823Z,172.97
2018-12-26T13:29:55.335Z,268.53
2018-12-26T13:32:23.717Z,43.70
2018-12-26T13:34:54.057Z,53.80
2018-12-26T13:37:22.449Z,28.60
2018-12-26T13:39:50.848Z,29.33
2018-12-26T13:42:19.225Z,28.37
2018-12-26T13:44:47.705Z,29.67
2018-12-26T13:47:16.079Z,30.83
2018-12-26T13:49:44.471Z,31.07
2018-12-26T13:52:12.855Z,28.77
2018-12-26T13:54:41.245Z,30.10
2018-12-26T13:57:09.620Z,30.50
2018-12-26T13:59:38.016Z,28.63
2018-12-26T14:02:06.383Z,29.80
2018-12-26T14:04:34.775Z,31.57
2018-12-26T14:07:03.463Z,31.33
2018-12-26T14:09:31.853Z,27.10
2018-12-26T14:12:00.229Z,32.30
2018-12-26T14:14:29.301Z,28.77
2018-12-26T14:16:57.984Z,29.73
2018-12-26T14:19:26.376Z,27.63
2018-12-26T14:21:56.114Z,29.73
2018-12-26T14:24:26.226Z,30.47
2018-12-26T14:26:54.691Z,34.03
2018-12-26T14:29:23.129Z,33.20
2018-12-26T14:31:51.461Z,28.70
2018-12-26T14:34:19.861Z,29.87
2018-12-26T14:36:48.236Z,29.63
2018-12-26T14:39:17.715Z,29.67
2018-12-26T14:41:46.367Z,33.83
2018-12-26T14:44:14.816Z,28.30
2018-12-26T14:46:43.192Z,30.00
2018-12-26T14:49:11.563Z,32.43
2018-12-26T14:51:39.955Z,31.20
2018-12-26T14:54:08.585Z,32.17
2018-12-26T14:56:37.045Z,35.47
2018-12-26T14:59:05.416Z,37.40
2018-12-26T15:01:33.872Z,37.90
2018-12-26T15:04:02.241Z,37.40
2018-12-26T15:06:30.814Z,33.87
2018-12-26T15:08:59.195Z,36.57
2018-12-26T15:11:27.591Z,33.77
2018-12-26T15:13:56.032Z,32.80
2018-12-26T15:16:24.724Z,33.23
2018-12-26T15:18:53.109Z,32.93
2018-12-26T15:21:21.498Z,73.03
2018-12-26T15:23:49.968Z,35.10
2018-12-26T15:26:18.372Z,34.30
2018-12-26T15:28:46.738Z,31.30
2018-12-26T15:31:15.144Z,32.53
2018-12-26T15:33:43.519Z,32.43
2018-12-26T15:36:11.924Z,32.67
2018-12-26T15:38:40.329Z,37.07
2018-12-26T15:41:08.717Z,29.33
2018-12-26T15:43:37.084Z,31.37
2018-12-26T15:46:05.481Z,31.57
2018-12-26T15:48:33.854Z,39.20
2018-12-26T15:51:02.248Z,53.13
2018-12-26T15:53:30.710Z,67.03
2018-12-26T15:55:59.472Z,53.60
2018-12-26T15:58:27.853Z,36.90
2018-12-26T16:00:57.250Z,36.97
2018-12-26T16:03:25.620Z,33.37
2018-12-26T16:05:54.028Z,31.93
2018-12-26T16:08:22.422Z,58.77
2018-12-26T16:10:50.909Z,31.00
2018-12-26T16:13:19.274Z,32.50
2018-12-26T16:15:47.657Z,31.23
2018-12-26T16:18:16.155Z,28.17
2018-12-26T16:20:44.536Z,31.63
2018-12-26T16:23:12.933Z,26.50
2018-12-26T16:25:41.416Z,26.97
2018-12-26T16:28:09.806Z,27.20
2018-12-26T16:30:45.965Z,25.93
2018-12-26T16:33:08.231Z,23.93
2018-12-26T16:35:36.723Z,24.97
2018-12-26T16:38:05.220Z,24.43
2018-12-26T16:40:33.609Z,29.13
2018-12-26T16:43:02.034Z,31.27
2018-12-26T16:45:30.415Z,28.47
2018-12-26T16:47:58.833Z,26.10
2018-12-26T16:50:27.464Z,24.03
2018-12-26T16:52:55.924Z,22.60
2018-12-26T16:55:24.304Z,27.73
2018-12-26T16:57:52.708Z,28.63
2018-12-26T17:00:21.947Z,27.97
2018-12-26T17:02:50.426Z,25.50
2018-12-26T17:05:18.799Z,27.30
2018-12-26T17:07:47.476Z,29.77
2018-12-26T17:10:17.985Z,29.03
2018-12-26T17:12:46.389Z,30.47
2018-12-26T17:15:14.768Z,29.60
2018-12-26T17:17:43.164Z,31.60
2018-12-26T17:20:11.738Z,28.63
2018-12-26T17:22:40.131Z,28.60
2018-12-26T17:25:08.515Z,28.63
2018-12-26T17:27:36.904Z,31.60
2018-12-26T17:30:06.492Z,19.10
2018-12-26T17:32:34.856Z,15.53
2018-12-26T17:35:03.497Z,20.27
2018-12-26T17:37:31.893Z,19.13
2018-12-26T17:40:00.266Z,18.57
2018-12-26T17:42:28.672Z,23.40
2018-12-26T17:44:57.051Z,20.97
2018-12-26T17:47:25.427Z,17.50
2018-12-26T17:49:57.097Z,14.33
2018-12-26T17:52:25.532Z,13.20
2018-12-26T17:54:54.000Z,14.87
2018-12-26T17:57:22.381Z,13.80
2018-12-26T17:59:54.148Z,9.97
2018-12-26T18:02:25.914Z,13.47
2018-12-26T18:04:54.317Z,14.43
2018-12-26T18:07:22.759Z,19.00
2018-12-26T18:09:51.172Z,11.77
2018-12-26T18:12:19.654Z,12.57
2018-12-26T18:14:47.975Z,10.07
2018-12-26T18:17:16.348Z,12.03
2018-12-26T18:19:44.741Z,11.23
2018-12-26T18:22:13.110Z,12.17
2018-12-26T18:24:41.812Z,13.77
2018-12-26T18:27:10.183Z,13.20
2018-12-26T18:29:38.595Z,13.17
2018-12-26T18:32:06.988Z,39.77
2018-12-26T18:34:35.375Z,16.33
2018-12-26T18:37:03.751Z,11.43
2018-12-26T18:39:32.138Z,12.07
2018-12-26T18:42:00.525Z,11.47
2018-12-26T18:44:29.715Z,12.97
2018-12-26T18:46:58.145Z,13.20
2018-12-26T18:49:26.549Z,13.43
2018-12-26T18:51:55.003Z,14.77
2018-12-26T18:54:23.519Z,11.27
2018-12-26T18:56:51.866Z,15.10
2018-12-26T18:59:20.273Z,12.90
2018-12-26T19:01:50.431Z,10.97
2018-12-26T19:04:18.764Z,14.90
2018-12-26T19:06:47.142Z,13.70
2018-12-26T19:09:15.548Z,10.10
2018-12-26T19:11:43.961Z,11.70
2018-12-26T19:14:12.643Z,14.20
2018-12-26T19:16:41.044Z,15.90
2018-12-26T19:19:09.508Z,16.17
2018-12-26T19:21:39.543Z,14.50
2018-12-26T19:24:09.606Z,13.67
2018-12-26T19:26:38.003Z,13.87
2018-12-26T19:29:06.405Z,8.53
2018-12-26T19:31:39.433Z,14.80
2018-12-26T19:34:05.006Z,16.87
2018-12-26T19:36:33.411Z,13.53
2018-12-26T19:39:01.869Z,15.27
2018-12-26T19:41:30.273Z,16.70
2018-12-26T19:43:58.656Z,18.30
2018-12-26T19:46:27.061Z,19.57
2018-12-26T19:48:55.744Z,19.67
2018-12-26T19:51:24.140Z,20.43
2018-12-26T19:53:52.515Z,18.47
2018-12-26T19:56:20.911Z,21.93
2018-12-26T19:58:49.292Z,23.47
2018-12-26T20:01:17.697Z,18.10
2018-12-26T20:03:46.091Z,18.13
2018-12-26T20:06:14.492Z,18.17
2018-12-26T20:08:42.977Z,17.83
2018-12-26T20:11:11.655Z,16.37
2018-12-26T20:13:40.037Z,15.87
2018-12-26T20:16:08.435Z,19.13
2018-12-26T20:18:36.989Z,18.63
2018-12-26T20:21:05.381Z,16.50
2018-12-26T20:23:33.761Z,17.50
2018-12-26T20:26:02.166Z,17.57
2018-12-26T20:28:30.548Z,18.03
2018-12-26T20:30:58.960Z,18.20
2018-12-26T20:33:27.677Z,22.90
2018-12-26T20:35:56.179Z,18.87
2018-12-26T20:38:24.561Z,19.33
2018-12-26T20:40:52.966Z,18.43
2018-12-26T20:43:21.344Z,16.23
2018-12-26T20:45:49.725Z,19.13
2018-12-26T20:48:18.125Z,20.07
2018-12-26T20:50:46.505Z,16.23
2018-12-26T20:53:15.019Z,20.57
2018-12-26T20:55:43.393Z,20.50
2018-12-26T20:58:11.901Z,18.43
2018-12-26T21:00:40.273Z,11.97
2018-12-26T21:03:08.667Z,16.43
2018-12-26T21:05:37.149Z,17.00
2018-12-26T21:08:05.926Z,13.73
2018-12-26T21:10:34.300Z,16.97
2018-12-26T21:13:02.706Z,15.20
2018-12-26T21:15:31.089Z,17.03
2018-12-26T21:17:59.493Z,19.57
2018-12-26T21:20:27.867Z,14.60
2018-12-26T21:22:56.323Z,10.63
2018-12-26T21:25:24.712Z,18.17
2018-12-26T21:27:53.112Z,15.67
2018-12-26T21:30:21.497Z,17.87
2018-12-26T21:32:49.895Z,19.27
2018-12-26T21:35:18.268Z,16.53
2018-12-26T21:37:46.676Z,16.17
2018-12-26T21:40:15.140Z,17.90
2018-12-26T21:42:43.535Z,12.10
2018-12-26T21:45:12.000Z,16.53
2018-12-26T21:47:40.399Z,23.43
2018-12-26T21:50:10.509Z,15.53
2018-12-26T21:52:38.909Z,18.00
2018-12-26T21:55:07.290Z,18.67
2018-12-26T21:57:35.699Z,18.13
2018-12-26T22:00:04.799Z,19.17
2018-12-26T22:02:33.504Z,22.47
2018-12-26T22:05:01.880Z,19.97
2018-12-26T22:07:30.256Z,19.13
2018-12-26T22:09:58.661Z,19.43
2018-12-26T22:12:27.042Z,17.10
2018-12-26T22:14:55.440Z,16.03
2018-12-26T22:17:23.833Z,18.47
2018-12-26T22:19:52.236Z,20.97
2018-12-26T22:22:20.607Z,20.93
2018-12-26T22:24:49.013Z,19.87
2018-12-26T22:27:17.771Z,20.00
2018-12-26T22:29:46.168Z,20.20
2018-12-26T22:32:14.831Z,21.30
2018-12-26T22:34:43.238Z,21.83
2018-12-26T22:37:11.895Z,19.03
2018-12-26T22:39:40.395Z,18.73
2018-12-26T22:42:09.071Z,15.93
2018-12-26T22:44:37.491Z,14.57
2018-12-26T22:47:05.857Z,18.30
2018-12-26T22:49:34.259Z,11.40
2018-12-26T22:52:02.712Z,16.60
2018-12-26T22:54:31.103Z,13.90
2018-12-26T22:56:59.484Z,14.20
2018-12-26T22:59:27.881Z,16.77
2018-12-26T23:01:56.261Z,14.17
2018-12-26T23:04:24.740Z,14.13
2018-12-26T23:06:53.121Z,16.37
2018-12-26T23:09:21.524Z,17.53
2018-12-26T23:11:49.899Z,15.90
2018-12-26T23:14:18.297Z,15.63
2018-12-26T23:16:46.686Z,21.13
2018-12-26T23:19:15.107Z,16.53
2018-12-26T23:21:43.856Z,16.23
2018-12-26T23:24:12.261Z,15.37
2018-12-26T23:26:40.640Z,14.90
2018-12-26T23:29:09.017Z,16.83
2018-12-26T23:31:37.476Z,17.07
2018-12-26T23:34:05.850Z,13.07
2018-12-26T23:36:34.251Z,16.80
2018-12-26T23:39:02.690Z,11.63
2018-12-26T23:41:31.131Z,14.00
2018-12-26T23:43:59.519Z,15.07
2018-12-26T23:46:27.928Z,14.33
2018-12-26T23:48:56.302Z,16.00
2018-12-26T23:51:24.705Z,17.80
2018-12-26T23:53:53.242Z,17.87
2018-12-26T23:56:21.636Z,15.27
2018-12-26T23:58:50.012Z,16.53
